Terminal Aerodrome Forecast
Issued by NWS

Home | Current Version | Previous Version | Text Only | Print | Product List | Glossary On
Versions: 1 2 3 4 5 6 7 8 9 10 11 12 13 14 15 16 17 18 19 20 21 22 23 24 25 26 27 28 29 30 31 32 33 34 35 36
000
FTAK31 PANC 272332
TAFASN
TAF
PASN 272332Z 2800/2824 34005KT P6SM OVC008
     FM280600 02005KT 1SM BR OVC004
     FM281000 00000KT 1/4SM FG VV002
     FM282100 20005KT 3SM BR OVC006=

USA.gov is the U.S. government's official web portal to all federal, state and local government web resources and services.